createdAt,value
2022-12-05T00:01:35.101Z,5.90
2022-12-05T00:04:06.282Z,6.00
2022-12-05T00:06:35.035Z,5.90
2022-12-05T00:09:03.279Z,5.90
2022-12-05T00:11:33.337Z,5.90
2022-12-05T00:14:01.897Z,5.90
2022-12-05T00:16:31.544Z,5.90
2022-12-05T00:19:00.814Z,5.90
2022-12-05T00:21:32.249Z,5.90
2022-12-05T00:24:01.632Z,6.00
2022-12-05T00:26:30.783Z,5.90
2022-12-05T00:28:58.715Z,5.90
2022-12-05T00:31:27.951Z,5.90
2022-12-05T00:33:55.998Z,5.90
2022-12-05T00:36:30.234Z,5.90
2022-12-05T00:39:01.004Z,5.80
2022-12-05T00:41:29.393Z,5.90
2022-12-05T00:43:59.548Z,5.90
2022-12-05T00:46:28.986Z,5.90
2022-12-05T00:48:58.663Z,5.90
2022-12-05T00:51:29.265Z,5.90
2022-12-05T00:54:02.280Z,5.90
2022-12-05T00:56:31.788Z,5.90
2022-12-05T00:59:00.756Z,5.90
2022-12-05T01:01:30.210Z,5.80
2022-12-05T01:03:58.998Z,5.80
2022-12-05T01:06:27.645Z,5.80
2022-12-05T01:08:56.462Z,5.80
2022-12-05T01:11:25.448Z,5.80
2022-12-05T01:13:53.956Z,5.90
2022-12-05T01:16:27.410Z,5.90
2022-12-05T01:18:55.792Z,5.80
2022-12-05T01:21:23.738Z,5.90
2022-12-05T01:23:51.309Z,5.90
2022-12-05T01:26:20.879Z,5.90
2022-12-05T01:28:49.331Z,5.80
2022-12-05T01:31:29.552Z,5.80
2022-12-05T01:33:59.332Z,5.80
2022-12-05T01:36:28.668Z,5.80
2022-12-05T01:38:56.755Z,5.90
2022-12-05T01:41:30.831Z,5.90
2022-12-05T01:44:12.060Z,5.90
2022-12-05T01:46:44.760Z,5.90
2022-12-05T01:49:20.484Z,5.90
2022-12-05T01:52:14.658Z,6.00
2022-12-05T01:54:46.525Z,6.00
2022-12-05T01:57:15.533Z,6.00
2022-12-05T01:59:49.263Z,6.00
2022-12-05T02:02:16.929Z,6.10
2022-12-05T02:04:57.475Z,6.10
2022-12-05T02:07:25.326Z,6.10
2022-12-05T02:09:52.933Z,6.10
2022-12-05T02:12:22.609Z,6.10
2022-12-05T02:15:11.459Z,6.10
2022-12-05T02:17:53.768Z,6.20
2022-12-05T02:20:30.027Z,6.20
2022-12-05T02:23:25.965Z,6.20
2022-12-05T02:28:40.032Z,6.20
2022-12-05T02:31:15.631Z,6.20
2022-12-05T02:33:50.356Z,6.20
2022-12-05T02:36:17.855Z,6.30
2022-12-05T02:38:56.167Z,6.20
2022-12-05T02:42:00.285Z,6.20
2022-12-05T02:44:43.155Z,6.20
2022-12-05T02:47:14.619Z,6.20
2022-12-05T02:49:43.556Z,6.20
2022-12-05T02:52:15.157Z,6.20
2022-12-05T02:54:44.409Z,6.20
2022-12-05T02:57:13.420Z,6.20
2022-12-05T02:59:41.014Z,6.20
2022-12-05T03:02:21.352Z,6.20
2022-12-05T03:04:48.887Z,6.20
2022-12-05T03:07:19.971Z,6.20
2022-12-05T03:09:56.206Z,6.20
2022-12-05T03:12:32.069Z,6.20
2022-12-05T03:15:17.155Z,6.10
2022-12-05T03:17:54.032Z,6.10
2022-12-05T03:20:28.462Z,6.10
2022-12-05T03:23:11.408Z,6.10
2022-12-05T03:25:47.975Z,6.20
2022-12-05T03:28:25.292Z,6.20
2022-12-05T03:31:00.444Z,6.10
2022-12-05T03:33:35.853Z,6.10
2022-12-05T03:36:33.048Z,6.20
2022-12-05T03:39:07.978Z,6.20
2022-12-05T03:41:42.961Z,6.10
2022-12-05T03:44:33.844Z,6.20
2022-12-05T03:47:06.960Z,6.20
2022-12-05T03:49:46.063Z,6.20
2022-12-05T03:52:13.572Z,6.20
2022-12-05T03:54:51.248Z,6.20
2022-12-05T03:57:56.236Z,6.20
2022-12-05T04:00:25.211Z,6.20
2022-12-05T04:03:06.235Z,6.20
2022-12-05T04:05:49.215Z,6.20
2022-12-05T04:08:26.220Z,6.20
2022-12-05T04:10:58.287Z,6.20
2022-12-05T04:13:31.172Z,6.20
2022-12-05T04:16:22.916Z,6.20
2022-12-05T04:19:00.469Z,6.20
2022-12-05T04:21:40.225Z,6.20
2022-12-05T04:24:31.608Z,6.20
2022-12-05T04:27:08.107Z,6.20
2022-12-05T04:29:59.948Z,5.90
2022-12-05T04:32:35.126Z,6.10
2022-12-05T04:35:09.938Z,6.10
2022-12-05T04:37:42.659Z,6.00
2022-12-05T04:40:27.390Z,6.10
2022-12-05T04:42:57.010Z,6.10
2022-12-05T04:45:25.923Z,6.00
2022-12-05T04:48:01.598Z,6.10
2022-12-05T04:50:32.833Z,6.10
2022-12-05T04:53:01.943Z,6.10
2022-12-05T04:55:31.538Z,6.10
2022-12-05T04:58:06.040Z,6.20
2022-12-05T05:00:40.911Z,6.10
2022-12-05T05:03:21.262Z,6.10
2022-12-05T05:05:51.769Z,6.10
2022-12-05T05:08:21.931Z,6.10
2022-12-05T05:11:13.175Z,6.00
2022-12-05T05:13:40.765Z,6.00
2022-12-05T05:16:08.889Z,6.00
2022-12-05T05:18:36.544Z,5.90
2022-12-05T05:21:04.157Z,5.80
2022-12-05T05:23:31.720Z,5.70
2022-12-05T05:25:59.241Z,5.70
2022-12-05T05:28:26.780Z,5.60
2022-12-05T05:30:54.290Z,5.60
2022-12-05T05:33:22.071Z,5.50
2022-12-05T05:35:49.548Z,5.50
2022-12-05T05:38:17.052Z,5.50
2022-12-05T05:40:44.586Z,5.50
2022-12-05T05:43:12.076Z,5.40
2022-12-05T05:45:39.587Z,5.40
2022-12-05T05:48:07.180Z,5.40
2022-12-05T05:50:34.652Z,5.40
2022-12-05T05:53:02.215Z,5.30
2022-12-05T05:55:29.820Z,5.30
2022-12-05T05:57:57.335Z,5.30
2022-12-05T06:00:24.924Z,5.30
2022-12-05T06:02:52.635Z,5.30
2022-12-05T06:05:20.280Z,5.30
2022-12-05T06:07:47.918Z,5.20
2022-12-05T06:10:15.572Z,5.20
2022-12-05T06:12:43.124Z,5.30
2022-12-05T06:15:11.401Z,5.30
2022-12-05T06:17:39.078Z,5.40
2022-12-05T06:20:07.557Z,5.40
2022-12-05T06:22:35.099Z,5.30
2022-12-05T06:25:02.626Z,5.30
2022-12-05T06:27:33.937Z,5.30
2022-12-05T06:30:01.537Z,5.30
2022-12-05T06:32:30.162Z,5.30
2022-12-05T06:34:57.903Z,5.30
2022-12-05T06:37:25.565Z,5.30
2022-12-05T06:39:53.221Z,5.30
2022-12-05T06:42:22.256Z,5.20
2022-12-05T06:44:49.914Z,5.20
2022-12-05T06:47:17.493Z,7.60
2022-12-05T06:49:45.132Z,5.10
2022-12-05T06:52:12.808Z,5.20
2022-12-05T06:54:40.477Z,5.20
2022-12-05T06:57:07.988Z,5.20
2022-12-05T06:59:35.523Z,5.30
2022-12-05T07:02:03.703Z,5.40
2022-12-05T07:04:31.299Z,5.40
2022-12-05T07:06:58.880Z,5.40
2022-12-05T07:09:45.612Z,5.40
2022-12-05T07:12:15.008Z,5.30
2022-12-05T07:14:48.680Z,5.20
2022-12-05T07:17:21.161Z,5.20
2022-12-05T07:19:51.714Z,5.10
2022-12-05T07:22:20.573Z,5.10
2022-12-05T07:24:48.278Z,5.10
2022-12-05T07:27:17.658Z,5.10
2022-12-05T07:29:47.135Z,5.20
2022-12-05T07:32:14.768Z,5.10
2022-12-05T07:34:42.421Z,5.20
2022-12-05T07:37:10.018Z,5.10
2022-12-05T07:39:37.623Z,5.10
2022-12-05T07:42:05.240Z,5.00
2022-12-05T07:44:33.055Z,5.00
2022-12-05T07:47:00.582Z,5.00
2022-12-05T07:49:28.191Z,5.00
2022-12-05T07:51:55.700Z,5.00
2022-12-05T07:54:23.360Z,5.00
2022-12-05T07:56:51.760Z,5.00
2022-12-05T07:59:19.530Z,5.10
2022-12-05T08:01:47.110Z,5.00
2022-12-05T08:04:15.777Z,5.10
2022-12-05T08:06:43.653Z,5.10
2022-12-05T08:09:11.432Z,5.20
2022-12-05T08:11:39.005Z,5.20
2022-12-05T08:14:07.144Z,5.20
2022-12-05T08:16:35.043Z,5.30
2022-12-05T08:19:08.641Z,5.30
2022-12-05T08:21:36.386Z,5.40
2022-12-05T08:24:07.689Z,5.50
2022-12-05T08:26:36.369Z,5.50
2022-12-05T08:29:09.436Z,5.60
2022-12-05T08:31:41.843Z,5.70
2022-12-05T08:34:12.495Z,5.70
2022-12-05T08:36:40.958Z,5.70
2022-12-05T08:39:14.918Z,5.80
2022-12-05T08:41:43.649Z,5.90
2022-12-05T08:44:16.176Z,5.90
2022-12-05T08:46:45.374Z,6.00
2022-12-05T08:49:13.387Z,6.00
2022-12-05T08:51:42.291Z,6.20
2022-12-05T08:54:10.364Z,6.10
2022-12-05T08:56:38.719Z,6.20
2022-12-05T08:59:06.693Z,6.30
2022-12-05T09:01:38.575Z,6.40
2022-12-05T09:04:07.764Z,6.40
2022-12-05T09:06:36.420Z,6.50
2022-12-05T09:09:07.124Z,6.40
2022-12-05T09:11:37.179Z,6.50
2022-12-05T09:14:05.366Z,6.50
2022-12-05T09:16:38.375Z,6.50
2022-12-05T09:19:13.578Z,6.60
2022-12-05T09:21:42.103Z,6.60
2022-12-05T09:24:11.944Z,6.60
2022-12-05T09:26:40.433Z,6.60
2022-12-05T09:29:14.138Z,6.70
2022-12-05T09:31:44.376Z,6.70
2022-12-05T09:34:14.108Z,6.70
2022-12-05T09:36:41.956Z,6.70
2022-12-05T09:39:11.161Z,6.70
2022-12-05T09:42:05.994Z,6.90
2022-12-05T09:44:51.622Z,6.90
2022-12-05T09:47:32.744Z,7.00
2022-12-05T09:50:21.155Z,7.00
2022-12-05T09:53:04.967Z,7.10
2022-12-05T09:55:54.451Z,7.10
2022-12-05T09:58:49.677Z,7.10
2022-12-05T10:01:29.536Z,7.20
2022-12-05T10:04:18.908Z,7.20
2022-12-05T10:07:10.306Z,7.20
2022-12-05T10:09:53.113Z,7.20
2022-12-05T10:12:38.176Z,7.20
2022-12-05T10:15:26.537Z,7.20
2022-12-05T10:18:01.595Z,7.30
2022-12-05T10:20:51.953Z,7.30
2022-12-05T10:23:56.072Z,7.40
2022-12-05T10:26:17.175Z,7.40
2022-12-05T10:28:56.126Z,7.40
2022-12-05T10:31:30.874Z,7.50
2022-12-05T10:34:37.437Z,7.50
2022-12-05T10:37:34.402Z,7.50
2022-12-05T10:40:02.098Z,7.50
2022-12-05T10:42:34.220Z,7.50
2022-12-05T10:45:21.100Z,7.60
2022-12-05T10:47:50.222Z,7.60
2022-12-05T10:50:33.776Z,7.60
2022-12-05T10:53:03.765Z,7.70
2022-12-05T10:56:00.029Z,7.70
2022-12-05T10:58:31.635Z,7.70
2022-12-05T11:01:09.067Z,7.70
2022-12-05T11:03:42.639Z,7.70
2022-12-05T11:06:27.704Z,7.80
2022-12-05T11:09:14.324Z,7.80
2022-12-05T11:11:42.064Z,7.80
2022-12-05T11:14:24.765Z,7.80
2022-12-05T11:16:58.082Z,7.80
2022-12-05T11:19:28.995Z,7.80
2022-12-05T11:21:57.246Z,7.90
2022-12-05T11:24:40.101Z,7.90
2022-12-05T11:27:16.635Z,7.90
2022-12-05T11:29:53.758Z,7.90
2022-12-05T11:32:25.021Z,8.00
2022-12-05T11:35:04.754Z,8.00
2022-12-05T11:37:48.256Z,8.00
2022-12-05T11:40:26.866Z,8.00
2022-12-05T11:43:24.320Z,8.00
2022-12-05T11:45:58.241Z,8.10
2022-12-05T11:48:53.554Z,8.10
2022-12-05T11:51:40.744Z,8.10
2022-12-05T11:54:11.063Z,8.20
2022-12-05T11:56:58.762Z,8.20
2022-12-05T11:59:47.725Z,8.20
2022-12-05T12:02:37.110Z,8.20
2022-12-05T12:05:07.580Z,8.20
2022-12-05T12:08:27.605Z,8.30
2022-12-05T12:11:13.332Z,8.40
2022-12-05T12:14:14.292Z,8.40
2022-12-05T12:17:05.986Z,8.40
2022-12-05T12:19:48.798Z,8.40
2022-12-05T12:22:57.561Z,8.50
2022-12-05T12:25:27.811Z,9.50
2022-12-05T12:28:13.766Z,8.50
2022-12-05T12:31:25.729Z,8.60
2022-12-05T12:34:17.321Z,8.60
2022-12-05T12:37:22.273Z,8.60
2022-12-05T12:40:01.485Z,8.60
2022-12-05T12:42:55.596Z,8.60
2022-12-05T12:46:00.901Z,8.60
2022-12-05T12:48:34.520Z,8.60
2022-12-05T12:51:03.335Z,8.60
2022-12-05T12:53:58.949Z,8.60
2022-12-05T12:56:36.730Z,8.50
2022-12-05T12:59:30.015Z,8.50
2022-12-05T13:02:20.320Z,8.50
2022-12-05T13:04:59.158Z,8.50
2022-12-05T13:08:07.220Z,8.50
2022-12-05T13:10:46.187Z,8.60
2022-12-05T13:13:24.131Z,8.60
2022-12-05T13:15:55.417Z,8.60
2022-12-05T13:18:24.881Z,8.60
2022-12-05T13:20:58.201Z,8.60
2022-12-05T13:23:32.863Z,8.70
2022-12-05T13:26:01.947Z,8.50
2022-12-05T13:28:41.968Z,8.60
2022-12-05T13:31:11.657Z,8.60
2022-12-05T13:33:46.867Z,8.50
2022-12-05T13:36:40.141Z,8.50
2022-12-05T13:39:40.573Z,8.50
2022-12-05T13:42:22.056Z,8.50
2022-12-05T13:45:28.118Z,8.50
2022-12-05T13:48:01.684Z,8.60
2022-12-05T13:51:22.609Z,8.60
2022-12-05T13:54:01.102Z,8.60
2022-12-05T13:56:45.868Z,8.60
2022-12-05T13:59:33.608Z,8.60
2022-12-05T14:02:01.356Z,8.50
2022-12-05T14:04:50.983Z,8.50
2022-12-05T14:07:50.925Z,8.50
2022-12-05T14:10:36.384Z,8.40
2022-12-05T14:13:16.223Z,8.30
2022-12-05T14:15:45.999Z,8.30
2022-12-05T14:18:42.680Z,8.30
2022-12-05T14:21:35.795Z,8.10
2022-12-05T14:24:25.247Z,8.10
2022-12-05T14:27:42.793Z,8.10
2022-12-05T14:30:19.280Z,8.00
2022-12-05T14:32:47.525Z,8.00
2022-12-05T14:35:32.125Z,7.90
2022-12-05T14:38:02.688Z,8.00
2022-12-05T14:40:32.365Z,7.90
2022-12-05T14:43:20.555Z,7.90
2022-12-05T14:45:51.329Z,7.90
2022-12-05T14:48:43.866Z,7.90
2022-12-05T14:51:32.659Z,7.80
2022-12-05T14:54:19.684Z,7.80
2022-12-05T14:56:59.943Z,7.80
2022-12-05T14:59:36.641Z,7.70
2022-12-05T15:02:05.470Z,7.70
2022-12-05T15:04:33.149Z,7.70
2022-12-05T15:07:05.500Z,7.70
2022-12-05T15:09:59.308Z,7.60
2022-12-05T15:12:46.269Z,7.20
2022-12-05T15:15:52.445Z,7.60
2022-12-05T15:18:30.257Z,7.60
2022-12-05T15:21:22.330Z,7.60
2022-12-05T15:24:03.596Z,7.50
2022-12-05T15:26:48.943Z,7.40
2022-12-05T15:29:29.118Z,7.40
2022-12-05T15:32:22.835Z,7.40
2022-12-05T15:34:56.558Z,7.40
2022-12-05T15:37:45.968Z,7.30
2022-12-05T15:40:22.139Z,7.30
2022-12-05T15:42:52.119Z,7.30
2022-12-05T15:45:31.876Z,7.30
2022-12-05T15:48:05.474Z,7.30
2022-12-05T15:50:53.440Z,7.20
2022-12-05T15:53:29.612Z,7.20
2022-12-05T15:56:14.806Z,7.20
2022-12-05T15:58:51.992Z,7.20
2022-12-05T16:01:22.916Z,7.20
2022-12-05T16:03:56.764Z,7.20
2022-12-05T16:06:27.338Z,7.20
2022-12-05T16:08:57.057Z,7.20
2022-12-05T16:11:25.043Z,7.10
2022-12-05T16:13:57.032Z,7.20
2022-12-05T16:16:32.464Z,7.10
2022-12-05T16:19:18.070Z,7.10
2022-12-05T16:21:59.161Z,7.10
2022-12-05T16:24:32.670Z,7.10
2022-12-05T16:27:15.092Z,7.00
2022-12-05T16:29:43.494Z,7.00
2022-12-05T16:32:25.257Z,7.00
2022-12-05T16:34:52.785Z,7.00
2022-12-05T16:37:28.482Z,7.00
2022-12-05T16:39:57.272Z,6.90
2022-12-05T16:42:27.108Z,6.90
2022-12-05T16:45:04.652Z,6.90
2022-12-05T16:47:42.060Z,6.90
2022-12-05T16:50:31.924Z,6.90
2022-12-05T16:53:08.600Z,6.80
2022-12-05T16:55:41.575Z,6.90
2022-12-05T16:58:22.487Z,6.80
2022-12-05T17:00:50.585Z,6.90
2022-12-05T17:03:34.040Z,6.80
2022-12-05T17:06:03.015Z,6.80
2022-12-05T17:08:30.626Z,6.80
2022-12-05T17:10:58.858Z,6.80
2022-12-05T17:13:26.426Z,6.80
2022-12-05T17:15:53.949Z,6.90
2022-12-05T17:18:26.580Z,6.90
2022-12-05T17:20:59.866Z,6.90
2022-12-05T17:23:27.396Z,6.90
2022-12-05T17:25:56.791Z,6.80
2022-12-05T17:28:26.142Z,6.80
2022-12-05T17:30:53.650Z,6.70
2022-12-05T17:33:21.156Z,6.70
2022-12-05T17:35:48.686Z,6.70
2022-12-05T17:38:16.643Z,6.70
2022-12-05T17:40:45.648Z,6.70
2022-12-05T17:43:21.413Z,6.60
2022-12-05T17:45:51.075Z,6.70
2022-12-05T17:48:18.623Z,6.60
2022-12-05T17:50:48.160Z,6.60
2022-12-05T17:53:18.579Z,6.60
2022-12-05T17:55:48.631Z,6.60
2022-12-05T17:58:17.216Z,6.60
2022-12-05T18:00:46.779Z,6.60
2022-12-05T18:03:17.145Z,6.60
2022-12-05T18:05:46.925Z,6.50
2022-12-05T18:08:16.642Z,6.50
2022-12-05T18:10:46.853Z,6.50
2022-12-05T18:13:15.705Z,6.50
2022-12-05T18:15:44.040Z,6.30
2022-12-05T18:18:14.968Z,6.30
2022-12-05T18:20:42.680Z,6.20
2022-12-05T18:23:10.769Z,6.00
2022-12-05T18:25:41.029Z,6.00
2022-12-05T18:28:08.567Z,5.80
2022-12-05T18:30:36.109Z,5.80
2022-12-05T18:33:03.670Z,5.70
2022-12-05T18:35:40.644Z,5.70
2022-12-05T18:38:10.770Z,5.50
2022-12-05T18:40:38.775Z,5.60
2022-12-05T18:43:06.453Z,5.40
2022-12-05T18:45:34.014Z,5.40
2022-12-05T18:48:16.370Z,5.40
2022-12-05T18:50:49.418Z,5.30
2022-12-05T18:53:17.209Z,5.30
2022-12-05T18:56:05.290Z,5.30
2022-12-05T18:58:32.599Z,5.20
2022-12-05T19:01:11.583Z,5.20
2022-12-05T19:03:40.140Z,5.10
2022-12-05T19:06:13.078Z,5.10
2022-12-05T19:08:41.386Z,5.00
2022-12-05T19:11:08.991Z,5.00
2022-12-05T19:13:36.555Z,5.00
2022-12-05T19:16:05.962Z,4.90
2022-12-05T19:18:33.595Z,4.90
2022-12-05T19:21:01.545Z,4.70
2022-12-05T19:23:31.886Z,4.70
2022-12-05T19:26:04.845Z,4.70
2022-12-05T19:28:36.405Z,4.60
2022-12-05T19:31:06.808Z,4.70
2022-12-05T19:33:39.319Z,4.70
2022-12-05T19:36:15.767Z,4.80
2022-12-05T19:38:45.203Z,4.80
2022-12-05T19:41:15.389Z,4.90
2022-12-05T19:43:44.823Z,4.90
2022-12-05T19:46:16.039Z,4.90
2022-12-05T19:48:43.808Z,5.00
2022-12-05T19:51:11.863Z,5.00
2022-12-05T19:53:41.676Z,5.00
2022-12-05T19:56:14.748Z,5.00
2022-12-05T19:58:42.868Z,5.20
2022-12-05T20:01:26.343Z,5.20
2022-12-05T20:04:03.189Z,5.30
2022-12-05T20:06:34.176Z,5.40
2022-12-05T20:09:02.487Z,5.50
2022-12-05T20:11:31.371Z,5.70
2022-12-05T20:14:00.703Z,5.70
2022-12-05T20:16:28.999Z,5.70
2022-12-05T20:18:59.175Z,5.80
2022-12-05T20:21:29.923Z,5.80
2022-12-05T20:23:59.506Z,5.80
2022-12-05T20:26:30.401Z,5.80
2022-12-05T20:28:59.464Z,5.80
2022-12-05T20:31:30.234Z,5.80
2022-12-05T20:33:58.085Z,5.80
2022-12-05T20:36:27.911Z,5.70
2022-12-05T20:38:57.780Z,5.70
2022-12-05T20:41:26.032Z,5.80
2022-12-05T20:43:57.553Z,5.80
2022-12-05T20:46:25.935Z,5.80
2022-12-05T20:48:54.794Z,5.80
2022-12-05T20:51:26.654Z,5.90
2022-12-05T20:53:55.170Z,5.90
2022-12-05T20:56:25.406Z,5.90
2022-12-05T20:58:56.012Z,5.90
2022-12-05T21:01:25.799Z,5.90
2022-12-05T21:03:54.077Z,5.90
2022-12-05T21:06:29.141Z,5.90
2022-12-05T21:08:57.564Z,5.90
2022-12-05T21:11:25.969Z,5.90
2022-12-05T21:13:56.296Z,5.90
2022-12-05T21:16:25.336Z,5.80
2022-12-05T21:18:54.069Z,5.80
2022-12-05T21:21:26.637Z,5.80
2022-12-05T21:23:57.883Z,5.80
2022-12-05T21:26:27.486Z,5.80
2022-12-05T21:28:55.929Z,5.80
2022-12-05T21:31:29.347Z,5.80
2022-12-05T21:33:59.960Z,5.70
2022-12-05T21:36:30.636Z,5.80
2022-12-05T21:38:59.514Z,5.80
2022-12-05T21:41:27.794Z,5.80
2022-12-05T21:43:56.269Z,5.80
2022-12-05T21:46:25.157Z,5.80
2022-12-05T21:48:53.295Z,5.80
2022-12-05T21:51:21.816Z,5.90
2022-12-05T21:53:49.817Z,5.80
2022-12-05T21:56:20.274Z,5.90
2022-12-05T21:58:47.948Z,5.80
2022-12-05T22:01:24.511Z,5.80
2022-12-05T22:03:55.916Z,5.80
2022-12-05T22:06:23.540Z,5.80
2022-12-05T22:08:51.354Z,5.80
2022-12-05T22:13:49.043Z,5.80
2022-12-05T22:16:17.856Z,5.80
2022-12-05T22:18:46.045Z,5.80
2022-12-05T22:21:17.380Z,5.80
2022-12-05T22:23:46.045Z,5.80
2022-12-05T22:26:17.172Z,5.80
2022-12-05T22:28:45.610Z,5.80
2022-12-05T22:31:15.553Z,5.80
2022-12-05T22:33:44.793Z,5.90
2022-12-05T22:36:14.958Z,5.90
2022-12-05T22:38:45.127Z,5.90
2022-12-05T22:41:15.279Z,5.90
2022-12-05T22:43:44.756Z,5.80
2022-12-05T22:46:15.683Z,5.90
2022-12-05T22:48:43.808Z,5.90
2022-12-05T22:51:12.184Z,5.90
2022-12-05T22:53:40.002Z,5.90
2022-12-05T22:56:10.591Z,5.90
2022-12-05T22:58:39.673Z,5.80
2022-12-05T23:01:16.120Z,5.90
2022-12-05T23:03:46.061Z,5.90
2022-12-05T23:06:15.861Z,5.90
2022-12-05T23:08:45.683Z,6.30
2022-12-05T23:11:13.397Z,5.90
2022-12-05T23:13:41.063Z,5.90
2022-12-05T23:16:15.055Z,5.90
2022-12-05T23:18:46.834Z,5.90
2022-12-05T23:21:19.120Z,5.90
2022-12-05T23:23:48.528Z,5.90
2022-12-05T23:26:17.047Z,5.80
2022-12-05T23:28:45.047Z,5.80
2022-12-05T23:31:13.582Z,5.80
2022-12-05T23:33:41.541Z,5.80
2022-12-05T23:36:10.451Z,5.80
2022-12-05T23:38:39.300Z,5.80
2022-12-05T23:41:13.721Z,5.80
2022-12-05T23:43:42.403Z,5.80
2022-12-05T23:46:12.036Z,5.70
2022-12-05T23:48:40.472Z,5.70
2022-12-05T23:51:13.768Z,5.70
2022-12-05T23:53:43.803Z,5.70
2022-12-05T23:56:12.711Z,5.70
2022-12-05T23:58:40.966Z,5.70
